Time;durP1;ratioP1;P1;durP2;ratioP2;P2;SDS_P1;SDS_P2;PMS_P1;PMS_P2;Temp;Humidity;BMP_temperature;BMP_pressure;BME280_temperature;BME280_humidity;BME280_pressure;Samples;Min_cycle;Max_cycle;Signal;HPM_P1;HPM_P2
2022/08/20 00:01:48;;;;;;;3.72;2.60;;;23.30;88.50;;;;;;5019233;28;20480;-81
2022/08/20 00:04:14;;;;;;;4.22;2.92;;;23.40;88.50;;;;;;5016906;28;20164;-80
2022/08/20 00:06:40;;;;;;;4.28;3.00;;;23.40;88.60;;;;;;5036936;28;20033;-80
2022/08/20 00:09:06;;;;;;;4.22;2.90;;;23.30;88.60;;;;;;5036021;28;20044;-81
2022/08/20 00:11:32;;;;;;;4.63;3.05;;;23.30;88.60;;;;;;5035801;28;20036;-80
2022/08/20 00:14:03;;;;;;;3.83;2.55;;;23.40;88.60;;;;;;5034736;28;20053;-80
2022/08/20 00:16:31;;;;;;;3.53;2.57;;;23.40;88.60;;;;;;5034837;28;20670;-80
2022/08/20 00:18:58;;;;;;;4.32;2.95;;;23.40;88.60;;;;;;5034429;28;20268;-80
2022/08/20 00:21:24;;;;;;;3.80;2.63;;;23.40;88.50;;;;;;5035695;28;20033;-80
2022/08/20 00:23:51;;;;;;;4.47;2.92;;;23.40;88.50;;;;;;5021987;28;20052;-80
2022/08/20 00:26:17;;;;;;;3.42;2.40;;;23.40;88.30;;;;;;5035830;28;20036;-80
2022/08/20 00:28:43;;;;;;;3.70;2.60;;;23.40;88.30;;;;;;5035037;28;20377;-78
2022/08/20 00:31:12;;;;;;;4.03;2.78;;;23.40;88.20;;;;;;5016429;28;20029;-80
2022/08/20 00:33:38;;;;;;;3.70;2.58;;;23.40;88.20;;;;;;5016174;28;20175;-80
2022/08/20 00:36:09;;;;;;;4.97;3.10;;;23.40;88.30;;;;;;5016139;28;20025;-76
2022/08/20 00:38:40;;;;;;;3.35;2.50;;;23.40;88.40;;;;;;5034691;28;20376;-80
2022/08/20 00:41:09;;;;;;;4.68;3.10;;;23.40;88.50;;;;;;5033638;28;20032;-79
2022/08/20 00:43:46;;;;;;;3.85;2.67;;;23.30;88.50;;;;;;5016292;28;20109;-79
2022/08/20 00:46:26;;;;;;;4.05;2.83;;;23.40;88.60;;;;;;5016553;28;20026;-80
2022/08/20 00:48:55;;;;;;;3.80;2.70;;;23.40;88.60;;;;;;5034773;28;20030;-80
2022/08/20 00:51:31;;;;;;;4.13;2.83;;;23.30;88.60;;;;;;5033954;28;20095;-81
2022/08/20 00:54:16;;;;;;;3.60;2.60;;;23.30;88.70;;;;;;5015857;28;20033;-79
2022/08/20 00:56:45;;;;;;;4.05;2.78;;;23.30;88.70;;;;;;5040418;28;20029;-78
2022/08/20 00:59:15;;;;;;;4.15;2.85;;;23.30;88.70;;;;;;5015330;28;20022;-80
2022/08/20 01:01:42;;;;;;;4.00;2.70;;;23.30;88.60;;;;;;5016053;28;20018;-79
2022/08/20 01:04:09;;;;;;;4.18;2.90;;;23.30;88.60;;;;;;5015913;28;20489;-80
2022/08/20 01:06:36;;;;;;;3.92;2.70;;;23.40;88.70;;;;;;5016018;28;20036;-80
2022/08/20 01:09:02;;;;;;;4.35;2.85;;;23.40;88.60;;;;;;5015805;28;20079;-80
2022/08/20 01:11:35;;;;;;;4.88;2.72;;;23.40;88.40;;;;;;5033627;28;20065;-78
2022/08/20 01:16:53;;;;;;;4.53;2.85;;;23.40;88.30;;;;;;5031167;28;20021;-80
2022/08/20 01:19:26;;;;;;;4.45;2.70;;;23.40;88.30;;;;;;5015138;28;20087;-80
2022/08/20 01:21:52;;;;;;;4.40;3.00;;;23.40;88.40;;;;;;5016233;28;20109;-80
2022/08/20 01:24:36;;;;;;;4.50;3.00;;;23.40;88.50;;;;;;5037157;28;20466;-80
2022/08/20 01:27:04;;;;;;;4.70;2.90;;;23.30;88.50;;;;;;5019369;28;20025;-80
2022/08/20 01:29:35;;;;;;;4.15;2.58;;;23.30;88.60;;;;;;5018818;28;20036;-80
2022/08/20 01:32:01;;;;;;;4.10;2.88;;;23.30;88.70;;;;;;5036869;28;20112;-80
2022/08/20 01:34:28;;;;;;;4.07;2.70;;;23.30;88.70;;;;;;5036555;28;20155;-80
2022/08/20 01:36:56;;;;;;;4.65;2.92;;;23.30;88.70;;;;;;5018801;28;20082;-80
2022/08/20 01:39:35;;;;;;;4.03;2.90;;;23.30;88.80;;;;;;5018763;28;20075;-80
2022/08/20 01:42:36;;;;;;;4.65;3.00;;;23.30;88.80;;;;;;5019215;28;20377;-81
2022/08/20 01:45:02;;;;;;;3.70;2.60;;;23.30;88.80;;;;;;5020957;28;20013;-80
2022/08/20 01:47:31;;;;;;;4.13;2.88;;;23.30;89.30;;;;;;5039275;28;20025;-81
2022/08/20 01:50:08;;;;;;;3.95;2.67;;;23.30;88.80;;;;;;5021086;28;20049;-82
2022/08/20 01:52:50;;;;;;;3.90;2.80;;;23.30;88.80;;;;;;5039254;28;20026;-80
2022/08/20 01:55:16;;;;;;;4.07;2.70;;;23.40;88.70;;;;;;5021292;28;20025;-80
2022/08/20 01:57:42;;;;;;;4.60;3.03;;;23.40;88.50;;;;;;5021279;28;20503;-81
2022/08/20 02:00:12;;;;;;;4.35;3.08;;;23.40;88.50;;;;;;5037959;28;20030;-80
2022/08/20 02:02:38;;;;;;;4.40;2.80;;;23.30;88.40;;;;;;5026521;28;20017;-80
2022/08/20 02:05:04;;;;;;;4.18;2.83;;;23.40;88.50;;;;;;5038299;28;20029;-80
2022/08/20 02:07:31;;;;;;;4.80;3.03;;;23.30;88.50;;;;;;5038121;28;20056;-80
2022/08/20 02:09:57;;;;;;;5.10;2.97;;;23.30;88.60;;;;;;5019720;28;20516;-81
2022/08/20 02:12:22;;;;;;;4.28;2.97;;;23.30;88.70;;;;;;5019954;28;20040;-81
2022/08/20 02:14:51;;;;;;;4.30;2.80;;;23.40;88.80;;;;;;5020192;28;20316;-80
2022/08/20 02:17:18;;;;;;;4.10;2.85;;;23.30;88.80;;;;;;5019675;28;20018;-80
2022/08/20 02:19:47;;;;;;;3.78;2.78;;;23.30;88.90;;;;;;5052461;28;20053;-79
2022/08/20 02:22:33;;;;;;;3.80;2.70;;;23.30;88.90;;;;;;5037224;28;20057;-80
2022/08/20 02:24:59;;;;;;;4.18;2.90;;;23.30;88.90;;;;;;5037129;28;20501;-79
2022/08/20 02:27:25;;;;;;;4.70;3.13;;;23.30;89.00;;;;;;5018570;28;20072;-79
2022/08/20 02:29:51;;;;;;;4.40;2.97;;;23.30;89.00;;;;;;5018257;28;20022;-79
2022/08/20 02:32:17;;;;;;;4.20;2.80;;;23.30;88.90;;;;;;5018012;28;20025;-80
2022/08/20 02:34:42;;;;;;;4.00;2.80;;;23.30;88.90;;;;;;5036849;28;20519;-80
2022/08/20 02:37:08;;;;;;;4.47;2.90;;;23.30;88.90;;;;;;5018577;28;20032;-80
2022/08/20 02:39:34;;;;;;;4.40;2.85;;;23.30;88.80;;;;;;5018273;28;20022;-81
2022/08/20 02:42:01;;;;;;;4.25;3.00;;;23.30;88.70;;;;;;5036065;28;20028;-80
2022/08/20 02:44:27;;;;;;;3.70;2.72;;;23.30;88.60;;;;;;5018160;28;20022;-80
2022/08/20 02:46:52;;;;;;;4.45;3.03;;;23.30;88.50;;;;;;5015661;28;20021;-81
2022/08/20 02:49:19;;;;;;;4.38;2.97;;;23.30;88.50;;;;;;5017403;28;20113;-81
2022/08/20 02:51:45;;;;;;;5.20;3.00;;;23.30;88.50;;;;;;5018090;28;20080;-80
2022/08/20 02:54:12;;;;;;;4.80;3.30;;;23.30;88.70;;;;;;5018080;28;20026;-79
2022/08/20 02:56:38;;;;;;;4.32;3.00;;;23.30;88.70;;;;;;5018042;28;20048;-80
2022/08/20 02:59:03;;;;;;;4.22;2.80;;;23.20;88.70;;;;;;5017805;28;20025;-80
2022/08/20 03:01:30;;;;;;;4.75;3.03;;;23.30;88.90;;;;;;5016736;28;20028;-81
2022/08/20 03:03:57;;;;;;;4.63;2.95;;;23.20;88.90;;;;;;5044930;28;20022;-80
2022/08/20 03:06:24;;;;;;;4.90;3.22;;;23.20;88.90;;;;;;5038347;28;20021;-81
2022/08/20 03:08:50;;;;;;;4.32;2.92;;;23.20;88.90;;;;;;5037768;28;20135;-79
2022/08/20 03:11:16;;;;;;;4.55;3.08;;;23.20;89.00;;;;;;5019821;28;20444;-81
2022/08/20 03:13:42;;;;;;;4.78;2.90;;;23.30;89.00;;;;;;5037139;28;20018;-82
2022/08/20 03:16:08;;;;;;;4.82;3.17;;;23.30;89.00;;;;;;5019337;28;20014;-80
2022/08/20 03:18:44;;;;;;;4.90;3.08;;;23.30;89.00;;;;;;5036711;28;20439;-81
2022/08/20 03:21:11;;;;;;;4.75;3.03;;;23.30;89.00;;;;;;5018937;28;20362;-80
2022/08/20 03:23:38;;;;;;;3.63;2.58;;;23.30;89.00;;;;;;5019306;28;20032;-81
2022/08/20 03:26:06;;;;;;;4.70;3.00;;;23.30;88.80;;;;;;5018855;28;20554;-81
2022/08/20 03:28:32;;;;;;;4.10;2.83;;;23.30;88.70;;;;;;5019226;28;20448;-81
2022/08/20 03:30:58;;;;;;;4.80;3.25;;;23.30;88.60;;;;;;5018161;28;20508;-80
2022/08/20 03:33:25;;;;;;;4.45;2.90;;;23.30;88.60;;;;;;5018174;28;20136;-80
2022/08/20 03:35:51;;;;;;;4.00;2.70;;;23.30;88.60;;;;;;5018345;28;20053;-80
2022/08/20 03:38:18;;;;;;;4.38;3.00;;;23.30;88.70;;;;;;5017919;28;20055;-80
2022/08/20 03:40:44;;;;;;;4.82;3.03;;;23.30;88.80;;;;;;5030851;28;20404;-79
2022/08/20 03:43:10;;;;;;;4.18;2.85;;;23.30;88.90;;;;;;5017595;28;20030;-81
2022/08/20 03:45:38;;;;;;;4.47;2.95;;;23.20;88.90;;;;;;5016989;28;20061;-79
2022/08/20 03:48:09;;;;;;;4.38;3.15;;;23.30;89.00;;;;;;5045971;28;20424;-81
2022/08/20 03:50:35;;;;;;;4.47;3.20;;;23.20;89.00;;;;;;5004465;28;20056;-80
2022/08/20 03:53:00;;;;;;;4.57;3.05;;;23.20;89.10;;;;;;5016831;28;20063;-80
2022/08/20 03:55:28;;;;;;;4.43;2.95;;;23.20;89.10;;;;;;5035436;28;20036;-80
2022/08/20 03:57:57;;;;;;;4.90;3.30;;;23.20;89.10;;;;;;5016899;28;20573;-81
2022/08/20 04:00:33;;;;;;;4.45;2.90;;;23.20;89.10;;;;;;5015992;28;20384;-82
2022/08/20 04:02:59;;;;;;;4.28;2.97;;;23.20;89.10;;;;;;5038706;28;20347;-80
2022/08/20 04:05:26;;;;;;;4.32;2.83;;;23.20;89.10;;;;;;5034921;28;20021;-80
2022/08/20 04:07:51;;;;;;;4.68;3.00;;;23.20;89.10;;;;;;5017872;28;20408;-80
2022/08/20 04:10:17;;;;;;;4.28;2.83;;;23.30;89.00;;;;;;5017427;28;20025;-80
2022/08/20 04:12:42;;;;;;;4.70;3.10;;;23.30;88.90;;;;;;5035049;28;20038;-80
2022/08/20 04:15:12;;;;;;;5.15;3.15;;;23.30;88.80;;;;;;5017434;28;20028;-81
2022/08/20 04:17:42;;;;;;;4.47;3.00;;;23.30;88.80;;;;;;5016987;28;20105;-80
2022/08/20 04:20:12;;;;;;;4.38;2.88;;;23.30;88.70;;;;;;5016806;28;20025;-80
2022/08/20 04:22:37;;;;;;;4.65;3.00;;;23.30;88.70;;;;;;5013046;28;20500;-80
2022/08/20 04:25:04;;;;;;;4.40;3.17;;;23.30;88.90;;;;;;5034756;28;20134;-80
2022/08/20 04:27:31;;;;;;;4.80;3.17;;;23.30;89.00;;;;;;5034786;28;20527;-80
2022/08/20 04:29:58;;;;;;;4.97;3.20;;;23.20;89.00;;;;;;5016081;28;20515;-80
2022/08/20 04:32:24;;;;;;;4.70;3.10;;;23.20;89.10;;;;;;5016756;28;20624;-80
2022/08/20 04:34:51;;;;;;;4.53;2.97;;;23.20;89.10;;;;;;5016568;28;20017;-80
2022/08/20 04:37:20;;;;;;;5.20;2.83;;;23.20;89.10;;;;;;5034351;28;20018;-80
2022/08/20 04:40:52;;;;;;;4.40;2.90;;;23.20;89.10;;;;;;5016362;28;20017;-80
2022/08/20 04:42:30;;;;;;;4.38;2.97;;;23.20;89.20;;;;;;5034094;28;20385;-80
2022/08/20 04:44:56;;;;;;;4.47;3.13;;;23.20;89.20;;;;;;5034216;28;20060;-80
2022/08/20 04:47:21;;;;;;;4.80;3.22;;;23.20;89.20;;;;;;5014983;28;20052;-80
2022/08/20 04:49:47;;;;;;;5.15;3.08;;;23.20;89.20;;;;;;5014290;28;20025;-80
2022/08/20 04:52:12;;;;;;;4.60;3.08;;;23.20;89.20;;;;;;5015924;28;20048;-80
2022/08/20 04:54:38;;;;;;;4.43;3.05;;;23.20;89.10;;;;;;5015535;28;20021;-80
2022/08/20 04:57:03;;;;;;;4.35;3.00;;;23.20;89.00;;;;;;5017814;28;20370;-81
2022/08/20 04:59:29;;;;;;;4.40;3.03;;;23.20;88.90;;;;;;5040119;28;20017;-80
2022/08/20 05:01:54;;;;;;;4.32;3.00;;;23.30;88.90;;;;;;5051170;28;20472;-80
2022/08/20 05:04:20;;;;;;;4.57;2.95;;;23.30;88.90;;;;;;5040068;28;20033;-81
2022/08/20 05:06:48;;;;;;;4.90;3.10;;;23.30;88.80;;;;;;5040312;28;20024;-81
2022/08/20 05:09:13;;;;;;;4.70;3.10;;;23.30;88.80;;;;;;5021763;28;20021;-80
2022/08/20 05:11:39;;;;;;;5.20;3.40;;;23.20;88.80;;;;;;5039889;28;20485;-81
2022/08/20 05:14:07;;;;;;;4.85;3.38;;;23.20;88.90;;;;;;5040124;28;20017;-81
2022/08/20 05:16:36;;;;;;;4.63;3.05;;;23.20;89.10;;;;;;5021570;28;20021;-80
2022/08/20 05:19:02;;;;;;;4.32;2.97;;;23.20;89.10;;;;;;5039056;28;20018;-80
2022/08/20 05:21:27;;;;;;;5.38;2.90;;;23.20;89.10;;;;;;5021338;28;20164;-80
2022/08/20 05:23:53;;;;;;;4.68;3.10;;;23.20;89.20;;;;;;5047768;28;20021;-80
2022/08/20 05:26:18;;;;;;;4.78;3.30;;;23.20;89.20;;;;;;5038919;28;20018;-81
2022/08/20 05:28:44;;;;;;;4.40;3.00;;;23.20;89.30;;;;;;5038334;28;20026;-80
2022/08/20 05:31:10;;;;;;;4.47;2.85;;;23.20;89.30;;;;;;5020054;28;20032;-80
2022/08/20 05:33:37;;;;;;;4.80;3.20;;;23.20;89.30;;;;;;5020424;28;20022;-80
2022/08/20 05:36:05;;;;;;;5.68;3.33;;;23.20;89.30;;;;;;5020535;28;20108;-80
2022/08/20 05:38:30;;;;;;;5.00;3.25;;;23.20;89.30;;;;;;5019936;28;20059;-80
2022/08/20 05:40:56;;;;;;;4.47;3.00;;;23.20;89.20;;;;;;5019934;28;20484;-81
2022/08/20 05:43:22;;;;;;;4.72;3.10;;;23.20;89.10;;;;;;5038345;28;20560;-80
2022/08/20 05:45:51;;;;;;;4.53;3.10;;;23.20;89.00;;;;;;5019877;28;20017;-80
2022/08/20 05:48:21;;;;;;;4.43;3.00;;;23.20;88.90;;;;;;5019467;28;20025;-81
2022/08/20 05:50:49;;;;;;;5.57;3.40;;;23.30;88.90;;;;;;5019889;28;20026;-81
2022/08/20 05:53:16;;;;;;;3.78;2.78;;;23.20;88.80;;;;;;5022541;28;20287;-81
2022/08/20 05:55:43;;;;;;;5.00;3.45;;;23.20;88.90;;;;;;5021756;28;20036;-81
2022/08/20 05:58:17;;;;;;;4.68;2.90;;;23.20;89.00;;;;;;5021902;28;20072;-80
2022/08/20 06:00:43;;;;;;;4.78;3.30;;;23.20;89.70;;;;;;5038606;28;20044;-80
2022/08/20 06:05:53;;;;;;;5.57;3.03;;;23.20;89.20;;;;;;5039028;28;20032;-80
2022/08/20 06:08:19;;;;;;;5.47;3.75;;;23.20;89.30;;;;;;5038025;28;20029;-80
2022/08/20 06:10:45;;;;;;;4.43;2.97;;;23.10;89.30;;;;;;5019549;28;20024;-80
2022/08/20 06:13:10;;;;;;;5.18;3.30;;;23.20;89.30;;;;;;5020028;28;20403;-80
2022/08/20 06:15:36;;;;;;;4.80;3.30;;;23.20;89.30;;;;;;5020304;28;20017;-80
2022/08/20 06:18:06;;;;;;;4.63;3.00;;;23.20;89.30;;;;;;5021490;28;20021;-81
2022/08/20 06:20:33;;;;;;;4.68;3.08;;;23.10;89.30;;;;;;5021266;28;20018;-80
2022/08/20 06:22:58;;;;;;;5.13;3.58;;;23.20;89.30;;;;;;5054433;28;20470;-81
2022/08/20 06:25:23;;;;;;;4.18;2.97;;;23.20;89.30;;;;;;5039042;28;20029;-81
2022/08/20 06:27:49;;;;;;;4.88;3.25;;;23.20;89.20;;;;;;5020091;28;20120;-80
2022/08/20 06:30:16;;;;;;;4.70;3.20;;;23.20;89.10;;;;;;5037934;28;20083;-80
2022/08/20 06:32:42;;;;;;;4.70;3.13;;;23.20;89.00;;;;;;5020236;28;20116;-80
2022/08/20 06:35:08;;;;;;;5.07;3.45;;;23.20;88.90;;;;;;5020002;28;20057;-80
2022/08/20 06:37:36;;;;;;;5.00;3.13;;;23.20;88.80;;;;;;5019877;28;20021;-81
2022/08/20 06:40:07;;;;;;;5.03;3.35;;;23.30;88.80;;;;;;5010802;28;20025;-80
2022/08/20 06:42:33;;;;;;;5.50;3.42;;;23.20;88.90;;;;;;5019689;28;20036;-80
2022/08/20 06:45:04;;;;;;;5.25;3.50;;;23.20;89.00;;;;;;5019172;28;20033;-81
2022/08/20 06:47:30;;;;;;;4.90;3.30;;;23.20;89.10;;;;;;5019158;28;20052;-80
2022/08/20 06:49:56;;;;;;;4.13;2.83;;;23.20;89.10;;;;;;5018851;28;20083;-80
2022/08/20 06:52:22;;;;;;;4.68;3.28;;;23.10;89.10;;;;;;5047990;28;20124;-80
2022/08/20 06:54:47;;;;;;;4.60;3.10;;;23.20;89.20;;;;;;5031830;28;20018;-80
2022/08/20 06:57:13;;;;;;;4.47;3.03;;;23.10;89.20;;;;;;5018497;28;20498;-80
2022/08/20 06:59:39;;;;;;;4.97;3.30;;;23.20;89.20;;;;;;5018110;28;20025;-80
2022/08/20 07:02:04;;;;;;;4.45;3.08;;;23.10;89.10;;;;;;5018050;28;20117;-80
2022/08/20 07:04:30;;;;;;;4.38;2.92;;;23.20;89.20;;;;;;5018039;28;20048;-80
2022/08/20 07:06:56;;;;;;;4.35;2.88;;;23.20;89.20;;;;;;5018493;28;20511;-78
2022/08/20 07:09:23;;;;;;;5.43;3.28;;;23.20;89.10;;;;;;5035887;28;20484;-80
2022/08/20 07:11:49;;;;;;;4.78;3.08;;;23.20;89.10;;;;;;5035846;28;20059;-80
2022/08/20 07:14:17;;;;;;;4.63;3.05;;;23.20;89.00;;;;;;5018080;28;20025;-80
2022/08/20 07:16:42;;;;;;;4.85;3.30;;;23.20;88.90;;;;;;5017880;28;20026;-80
2022/08/20 07:19:09;;;;;;;4.90;3.00;;;23.20;88.80;;;;;;5016956;28;20072;-80
2022/08/20 07:21:35;;;;;;;4.43;3.00;;;23.30;88.90;;;;;;5016648;28;20021;-81
2022/08/20 07:24:01;;;;;;;4.90;3.33;;;23.20;88.70;;;;;;5017940;28;20029;-80
2022/08/20 07:26:26;;;;;;;4.65;3.30;;;23.20;88.70;;;;;;5017659;28;20032;-79
2022/08/20 07:28:53;;;;;;;4.50;3.00;;;23.20;88.80;;;;;;5035192;28;20028;-80
2022/08/20 07:34:04;;;;;;;4.13;2.95;;;23.20;88.80;;;;;;5035190;28;20032;-80
2022/08/20 07:36:30;;;;;;;5.00;3.15;;;23.20;88.80;;;;;;5016947;28;20029;-80
2022/08/20 07:38:55;;;;;;;4.85;3.20;;;23.20;88.80;;;;;;5016905;28;20032;-79
2022/08/20 07:41:21;;;;;;;4.82;3.10;;;23.20;88.80;;;;;;5016995;28;20029;-80
2022/08/20 07:43:47;;;;;;;4.43;3.00;;;23.20;88.80;;;;;;5016636;28;20087;-80
2022/08/20 07:46:16;;;;;;;4.88;3.20;;;23.20;88.80;;;;;;5041754;28;20021;-80
2022/08/20 07:48:48;;;;;;;4.35;2.80;;;23.20;88.90;;;;;;5016934;28;20029;-80
2022/08/20 07:51:16;;;;;;;4.90;3.20;;;23.20;88.90;;;;;;5016349;28;20036;-80
2022/08/20 07:53:42;;;;;;;5.07;3.28;;;23.20;88.80;;;;;;5016874;28;20405;-80
2022/08/20 07:56:11;;;;;;;5.15;3.40;;;23.30;88.70;;;;;;5016714;28;20028;-80
2022/08/20 07:58:42;;;;;;;4.20;2.92;;;23.30;88.50;;;;;;5014344;28;20022;-80
2022/08/20 08:01:10;;;;;;;5.00;3.10;;;23.40;88.20;;;;;;5034246;28;20026;-80
2022/08/20 08:03:36;;;;;;;4.47;2.90;;;23.40;88.10;;;;;;5035859;28;20024;-81
2022/08/20 08:06:02;;;;;;;4.80;3.13;;;23.40;88.00;;;;;;5019506;28;20060;-81
2022/08/20 08:08:30;;;;;;;4.40;3.00;;;23.40;87.90;;;;;;5036566;28;20028;-81
2022/08/20 08:10:59;;;;;;;5.97;2.85;;;23.40;87.90;;;;;;5019322;28;20082;-81
2022/08/20 08:13:26;;;;;;;4.43;3.00;;;23.40;88.10;;;;;;5019346;28;20396;-81
2022/08/20 08:15:56;;;;;;;4.25;3.00;;;23.30;88.20;;;;;;5019146;28;20534;-80
2022/08/20 08:18:26;;;;;;;5.13;3.30;;;23.30;88.30;;;;;;5019551;28;20109;-80
2022/08/20 08:20:53;;;;;;;5.30;3.15;;;23.30;88.30;;;;;;5018574;28;20024;-81
2022/08/20 08:23:21;;;;;;;5.40;3.38;;;23.30;88.40;;;;;;5036716;28;20109;-80
2022/08/20 08:25:47;;;;;;;6.15;3.35;;;23.30;88.40;;;;;;5036300;28;20094;-80
2022/08/20 08:28:13;;;;;;;4.85;3.33;;;23.30;88.50;;;;;;5018409;28;20025;-80
2022/08/20 08:30:41;;;;;;;5.35;3.58;;;23.30;88.50;;;;;;5036129;28;20060;-81
2022/08/20 08:33:30;;;;;;;5.00;3.25;;;23.20;88.60;;;;;;5022494;28;20382;-81
2022/08/20 08:35:58;;;;;;;5.35;3.60;;;23.30;88.60;;;;;;5021833;28;20018;-80
2022/08/20 08:38:24;;;;;;;5.57;3.55;;;23.30;88.60;;;;;;5031465;28;20021;-80
2022/08/20 08:40:53;;;;;;;5.30;3.47;;;23.30;88.60;;;;;;5021381;28;20075;-81
2022/08/20 08:43:20;;;;;;;5.97;3.50;;;23.30;88.60;;;;;;5021271;28;20457;-80
2022/08/20 08:45:53;;;;;;;4.60;3.00;;;23.30;88.50;;;;;;5020832;28;20025;-81
2022/08/20 08:48:20;;;;;;;4.65;2.90;;;23.30;88.40;;;;;;5035985;28;20038;-80
2022/08/20 08:50:50;;;;;;;5.78;3.30;;;23.30;88.30;;;;;;5019954;28;20030;-80
2022/08/20 08:53:23;;;;;;;5.28;3.58;;;23.30;88.10;;;;;;5020434;28;20025;-80
2022/08/20 08:55:49;;;;;;;4.85;3.20;;;23.40;88.00;;;;;;5038621;28;20052;-80
2022/08/20 08:58:15;;;;;;;4.93;3.30;;;23.40;88.10;;;;;;5020912;28;20026;-80
2022/08/20 09:00:40;;;;;;;5.15;3.17;;;23.30;88.10;;;;;;5038151;28;20473;-80
2022/08/20 09:03:14;;;;;;;5.40;3.30;;;23.30;88.20;;;;;;5020563;28;20057;-80
2022/08/20 09:05:47;;;;;;;4.57;3.05;;;23.40;88.30;;;;;;5020872;28;20048;-80
2022/08/20 09:08:16;;;;;;;4.43;3.10;;;23.30;88.20;;;;;;5020670;28;20052;-80
2022/08/20 09:10:43;;;;;;;6.10;3.47;;;23.30;88.20;;;;;;5020410;28;20048;-80
2022/08/20 09:13:09;;;;;;;4.90;3.40;;;23.30;88.20;;;;;;5020250;28;20121;-80
2022/08/20 09:15:35;;;;;;;5.57;3.50;;;23.40;88.20;;;;;;5037805;28;20053;-80
2022/08/20 09:18:00;;;;;;;4.50;3.00;;;23.30;88.20;;;;;;5020127;28;20022;-80
2022/08/20 09:20:26;;;;;;;4.50;3.05;;;23.30;88.30;;;;;;5037345;28;20060;-80
2022/08/20 09:22:52;;;;;;;5.00;3.28;;;23.30;88.30;;;;;;5020344;28;20393;-80
2022/08/20 09:25:18;;;;;;;4.90;3.08;;;23.30;88.30;;;;;;5037400;28;20163;-80
2022/08/20 09:27:44;;;;;;;5.00;3.22;;;23.30;88.30;;;;;;5020828;28;20037;-81
2022/08/20 09:30:11;;;;;;;5.00;3.33;;;23.30;88.20;;;;;;5039529;28;20037;-81
2022/08/20 09:32:37;;;;;;;4.75;3.13;;;23.40;88.10;;;;;;5022614;28;20022;-81
2022/08/20 09:35:03;;;;;;;4.90;2.90;;;23.40;87.80;;;;;;5022802;28;20028;-80
2022/08/20 09:37:31;;;;;;;4.78;3.20;;;23.40;87.70;;;;;;5039418;28;20030;-80
2022/08/20 09:39:57;;;;;;;6.32;3.38;;;23.50;87.60;;;;;;5021157;28;20032;-80
2022/08/20 09:42:29;;;;;;;4.70;3.13;;;23.50;87.50;;;;;;5038804;28;20030;-81
2022/08/20 09:44:54;;;;;;;;;;;23.50;87.40;;;;;;5022267;28;20021;-81
2022/08/20 09:47:20;;;;;;;4.82;3.28;;;23.60;87.50;;;;;;5039074;28;19905;-81
2022/08/20 09:49:46;;;;;;;5.45;3.25;;;23.60;87.40;;;;;;5054122;28;20021;-81
2022/08/20 09:52:24;;;;;;;4.97;3.20;;;23.60;87.30;;;;;;5020751;28;20025;-81
2022/08/20 09:54:53;;;;;;;5.72;3.50;;;23.70;87.10;;;;;;5020777;28;20040;-80
2022/08/20 09:57:20;;;;;;;5.07;3.33;;;23.70;87.10;;;;;;5038194;28;20385;-80
2022/08/20 09:59:56;;;;;;;5.07;3.47;;;23.60;87.00;;;;;;5037881;28;20021;-80
2022/08/20 10:02:22;;;;;;;4.88;3.22;;;23.70;87.00;;;;;;5038637;28;20045;-80
2022/08/20 10:04:48;;;;;;;4.63;3.25;;;23.70;87.00;;;;;;5018875;28;20039;-80
2022/08/20 10:07:13;;;;;;;5.00;3.38;;;23.70;86.90;;;;;;5015318;28;20495;-80
2022/08/20 10:09:39;;;;;;;4.72;3.17;;;23.70;86.80;;;;;;5019342;28;20550;-80
2022/08/20 10:12:05;;;;;;;5.00;3.28;;;23.70;86.80;;;;;;5036960;28;20035;-81
2022/08/20 10:14:30;;;;;;;5.50;3.60;;;23.70;86.70;;;;;;5019052;28;20064;-80
2022/08/20 10:16:58;;;;;;;5.18;3.30;;;23.80;86.50;;;;;;5019149;28;20017;-81
2022/08/20 10:19:24;;;;;;;4.53;3.17;;;23.80;86.50;;;;;;5020628;28;20048;-81
2022/08/20 10:21:51;;;;;;;5.47;3.15;;;23.80;86.50;;;;;;5039349;28;20040;-80
2022/08/20 10:24:17;;;;;;;5.32;3.25;;;23.80;86.50;;;;;;5021737;28;20072;-81
2022/08/20 10:26:43;;;;;;;4.63;3.00;;;23.70;86.60;;;;;;5021506;28;20026;-80
2022/08/20 10:29:08;;;;;;;4.13;2.70;;;23.70;86.90;;;;;;5038173;28;20057;-80
2022/08/20 10:31:34;;;;;;;4.90;3.30;;;23.60;87.00;;;;;;5020344;28;20396;-80
2022/08/20 10:33:59;;;;;;;4.95;3.15;;;23.60;87.30;;;;;;5024609;28;20108;-80
2022/08/20 10:36:25;;;;;;;4.97;3.08;;;23.60;87.40;;;;;;5035781;28;20044;-78
2022/08/20 10:38:51;;;;;;;6.30;3.40;;;23.50;87.50;;;;;;5036195;28;20024;-81
2022/08/20 10:41:16;;;;;;;6.00;2.92;;;23.50;87.70;;;;;;5029584;28;20029;-81
2022/08/20 10:43:42;;;;;;;6.78;3.40;;;23.60;87.80;;;;;;5019096;28;20022;-82
2022/08/20 10:46:08;;;;;;;5.03;2.90;;;23.50;87.70;;;;;;5019348;28;20128;-81
2022/08/20 10:48:33;;;;;;;8.85;3.63;;;23.50;87.50;;;;;;5036844;28;20021;-81
2022/08/20 10:50:59;;;;;;;10.10;3.58;;;23.60;87.60;;;;;;5036623;28;20531;-81
2022/08/20 10:53:25;;;;;;;6.55;2.92;;;23.60;87.50;;;;;;5036836;28;20384;-81
2022/08/20 10:55:52;;;;;;;6.80;3.50;;;23.70;87.50;;;;;;5019028;28;20083;-81
2022/08/20 10:58:18;;;;;;;7.05;3.35;;;23.70;87.30;;;;;;5036626;28;20036;-81
2022/08/20 11:00:44;;;;;;;7.70;3.28;;;23.80;87.30;;;;;;5035724;28;20022;-79
2022/08/20 11:03:10;;;;;;;6.53;3.30;;;23.80;90.10;;;;;;5035865;28;20037;-83
2022/08/20 11:05:35;;;;;;;6.65;3.10;;;23.80;90.30;;;;;;5018268;28;20036;-81
2022/08/20 11:08:02;;;;;;;5.60;3.03;;;23.90;90.30;;;;;;5018354;28;20064;-81
2022/08/20 11:10:32;;;;;;;8.82;3.30;;;24.10;89.50;;;;;;5017857;28;20500;-81
2022/08/20 11:12:57;;;;;;;6.40;3.40;;;24.30;88.80;;;;;;5035800;28;20033;-81
2022/08/20 11:15:23;;;;;;;9.30;3.40;;;24.40;89.00;;;;;;5018284;28;20420;-81
2022/08/20 11:17:49;;;;;;;11.60;3.53;;;24.50;88.70;;;;;;5017982;28;20049;-81
2022/08/20 11:20:17;;;;;;;11.85;3.50;;;24.60;88.90;;;;;;5035553;28;20032;-82
2022/08/20 11:22:43;;;;;;;7.95;3.13;;;24.80;89.10;;;;;;5021063;28;20041;-82
2022/08/20 11:25:09;;;;;;;14.35;3.50;;;24.80;89.70;;;;;;5021287;28;20026;-81
2022/08/20 11:27:38;;;;;;;10.73;3.45;;;24.90;89.30;;;;;;5038205;28;20096;-81
2022/08/20 11:30:07;;;;;;;11.07;3.22;;;25.00;89.40;;;;;;5019628;28;20026;-81
2022/08/20 11:32:32;;;;;;;11.48;3.25;;;25.00;90.20;;;;;;5037744;28;20040;-81
2022/08/20 11:34:57;;;;;;;9.35;3.42;;;25.00;90.60;;;;;;5037880;28;20022;-82
2022/08/20 11:37:24;;;;;;;8.10;3.13;;;25.00;90.70;;;;;;5019413;28;20025;-82
2022/08/20 11:39:50;;;;;;;9.57;3.22;;;25.10;90.60;;;;;;5037079;28;20083;-82
2022/08/20 11:42:15;;;;;;;9.65;3.20;;;25.10;90.60;;;;;;5037068;28;20022;-82
2022/08/20 11:44:41;;;;;;;10.57;3.28;;;25.10;90.60;;;;;;5019022;28;20022;-82
2022/08/20 11:47:09;;;;;;;10.32;3.42;;;25.20;90.50;;;;;;5018410;28;20029;-82
2022/08/20 11:49:35;;;;;;;15.02;3.90;;;25.20;90.70;;;;;;5035819;28;20021;-82
2022/08/20 11:52:01;;;;;;;10.38;3.40;;;25.30;90.70;;;;;;5036348;28;20030;-81
2022/08/20 11:54:27;;;;;;;11.80;3.50;;;25.40;91.00;;;;;;5018442;28;20036;-81
2022/08/20 11:56:56;;;;;;;10.68;3.58;;;25.30;91.20;;;;;;5036479;28;20017;-81
2022/08/20 11:59:22;;;;;;;9.57;3.53;;;25.40;91.20;;;;;;5017737;28;20025;-81
2022/08/20 12:01:48;;;;;;;10.95;3.30;;;25.40;91.10;;;;;;5017995;28;20116;-81
2022/08/20 12:04:14;;;;;;;9.45;3.20;;;25.40;91.00;;;;;;5017818;28;20049;-81
2022/08/20 12:06:39;;;;;;;14.52;4.40;;;25.40;90.80;;;;;;5017383;28;20087;-81
2022/08/20 12:09:05;;;;;;;11.20;3.55;;;25.40;90.70;;;;;;5017477;28;20029;-81
2022/08/20 12:11:30;;;;;;;11.13;3.20;;;25.50;90.60;;;;;;5017623;28;20029;-82
2022/08/20 12:13:56;;;;;;;9.60;3.15;;;25.60;90.60;;;;;;5017120;28;20029;-81
2022/08/20 12:16:21;;;;;;;14.25;3.85;;;25.60;90.30;;;;;;5035448;28;20061;-81
2022/08/20 12:18:47;;;;;;;13.43;3.88;;;25.70;90.10;;;;;;5035797;28;20022;-81
2022/08/20 12:21:13;;;;;;;18.40;3.60;;;25.70;90.00;;;;;;5016930;28;20032;-81
2022/08/20 12:23:38;;;;;;;9.85;3.25;;;25.70;89.80;;;;;;5017582;28;20484;-81
2022/08/20 12:26:04;;;;;;;8.85;3.70;;;25.70;89.50;;;;;;5017384;28;20041;-82
2022/08/20 12:28:30;;;;;;;10.70;3.20;;;25.70;89.30;;;;;;5017519;28;20144;-82
2022/08/20 12:30:56;;;;;;;11.38;3.40;;;25.80;89.20;;;;;;5034934;28;20468;-82
2022/08/20 12:33:22;;;;;;;10.32;3.70;;;25.70;89.90;;;;;;5036492;28;20037;-82
2022/08/20 12:35:47;;;;;;;13.90;3.53;;;25.60;90.20;;;;;;5018927;28;20022;-82
2022/08/20 12:38:13;;;;;;;12.90;3.78;;;25.50;90.20;;;;;;5036718;28;20030;-84
2022/08/20 12:40:39;;;;;;;10.93;3.30;;;25.40;90.40;;;;;;5038900;28;20033;-82
2022/08/20 12:43:05;;;;;;;8.60;3.13;;;25.30;90.70;;;;;;5019074;28;20036;-82
2022/08/20 12:45:32;;;;;;;11.60;3.60;;;25.20;90.80;;;;;;5036462;28;20025;-81
2022/08/20 12:48:06;;;;;;;10.85;3.33;;;25.10;90.80;;;;;;5019146;28;20037;-82
2022/08/20 12:50:33;;;;;;;10.85;3.45;;;25.00;90.90;;;;;;5036282;28;20049;-81
2022/08/20 12:53:00;;;;;;;10.45;3.63;;;25.00;90.90;;;;;;5019133;28;20377;-81
2022/08/20 12:55:26;;;;;;;14.00;3.22;;;25.00;90.90;;;;;;5018585;28;20029;-82